sensor_id;sensor_type;location;lat;lon;timestamp;pressure;altitude;pressure_sealevel;temperature;humidity
26823;BME280;14852;51.910;8.878;2024-02-26T00:00:00;98326.06;;;3.79;57.28
26823;BME280;14852;51.910;8.878;2024-02-26T00:02:26;98327.94;;;3.75;57.19
26823;BME280;14852;51.910;8.878;2024-02-26T00:04:51;98326.47;;;3.70;57.30
26823;BME280;14852;51.910;8.878;2024-02-26T00:07:17;98333.56;;;3.64;57.50
26823;BME280;14852;51.910;8.878;2024-02-26T00:09:43;98335.44;;;3.61;57.45
26823;BME280;14852;51.910;8.878;2024-02-26T00:12:08;98335.50;;;3.59;57.59
26823;BME280;14852;51.910;8.878;2024-02-26T00:14:34;98327.69;;;3.62;57.65
26823;BME280;14852;51.910;8.878;2024-02-26T00:17:00;98329.22;;;3.67;57.63
26823;BME280;14852;51.910;8.878;2024-02-26T00:19:26;98318.75;;;3.70;57.27
26823;BME280;14852;51.910;8.878;2024-02-26T00:21:52;98322.41;;;3.66;57.43
26823;BME280;14852;51.910;8.878;2024-02-26T00:24:19;98331.97;;;3.62;57.55
26823;BME280;14852;51.910;8.878;2024-02-26T00:26:45;98327.88;;;3.58;57.68
26823;BME280;14852;51.910;8.878;2024-02-26T00:29:10;98334.78;;;3.57;57.70
26823;BME280;14852;51.910;8.878;2024-02-26T00:31:37;98324.56;;;3.56;57.66
26823;BME280;14852;51.910;8.878;2024-02-26T00:34:03;98324.41;;;3.59;57.66
26823;BME280;14852;51.910;8.878;2024-02-26T00:36:29;98324.28;;;3.62;57.51
26823;BME280;14852;51.910;8.878;2024-02-26T00:38:55;98328.38;;;3.66;57.53
26823;BME280;14852;51.910;8.878;2024-02-26T00:41:21;98319.00;;;3.65;57.54
26823;BME280;14852;51.910;8.878;2024-02-26T00:43:47;98315.53;;;3.66;57.80
26823;BME280;14852;51.910;8.878;2024-02-26T00:46:13;98321.34;;;3.70;57.58
26823;BME280;14852;51.910;8.878;2024-02-26T00:48:38;98316.88;;;3.73;57.55
26823;BME280;14852;51.910;8.878;2024-02-26T00:51:05;98316.81;;;3.75;57.84
26823;BME280;14852;51.910;8.878;2024-02-26T00:53:31;98313.28;;;3.77;57.61
26823;BME280;14852;51.910;8.878;2024-02-26T00:55:57;98308.28;;;3.74;57.70
26823;BME280;14852;51.910;8.878;2024-02-26T00:58:27;98311.75;;;3.73;57.81
26823;BME280;14852;51.910;8.878;2024-02-26T01:00:53;98306.69;;;3.72;58.07
26823;BME280;14852;51.910;8.878;2024-02-26T01:03:19;98297.47;;;3.68;58.28
26823;BME280;14852;51.910;8.878;2024-02-26T01:05:45;98303.53;;;3.67;58.16
26823;BME280;14852;51.910;8.878;2024-02-26T01:08:10;98306.94;;;3.67;58.06
26823;BME280;14852;51.910;8.878;2024-02-26T01:10:36;98308.78;;;3.63;58.05
26823;BME280;14852;51.910;8.878;2024-02-26T01:13:02;98296.91;;;3.61;58.39
26823;BME280;14852;51.910;8.878;2024-02-26T01:15:28;98304.69;;;3.59;58.57
26823;BME280;14852;51.910;8.878;2024-02-26T01:17:54;98298.91;;;3.56;58.29
26823;BME280;14852;51.910;8.878;2024-02-26T01:20:21;98293.69;;;3.57;58.58
26823;BME280;14852;51.910;8.878;2024-02-26T01:22:46;98292.03;;;3.56;58.58
26823;BME280;14852;51.910;8.878;2024-02-26T01:25:13;98292.94;;;3.55;58.66
26823;BME280;14852;51.910;8.878;2024-02-26T01:27:38;98292.84;;;3.57;58.44
26823;BME280;14852;51.910;8.878;2024-02-26T01:30:06;98299.72;;;3.56;58.31
26823;BME280;14852;51.910;8.878;2024-02-26T01:32:32;98295.50;;;3.55;58.35
26823;BME280;14852;51.910;8.878;2024-02-26T01:34:58;98287.72;;;3.57;58.43
26823;BME280;14852;51.910;8.878;2024-02-26T01:37:23;98290.97;;;3.60;58.39
26823;BME280;14852;51.910;8.878;2024-02-26T01:39:49;98280.53;;;3.63;58.45
26823;BME280;14852;51.910;8.878;2024-02-26T01:42:15;98281.31;;;3.66;58.38
26823;BME280;14852;51.910;8.878;2024-02-26T01:44:41;98286.44;;;3.66;58.60
26823;BME280;14852;51.910;8.878;2024-02-26T01:47:11;98286.66;;;3.61;58.51
26823;BME280;14852;51.910;8.878;2024-02-26T01:49:39;98280.09;;;3.55;58.73
26823;BME280;14852;51.910;8.878;2024-02-26T01:52:06;98277.66;;;3.52;58.83
26823;BME280;14852;51.910;8.878;2024-02-26T01:54:35;98276.06;;;3.50;58.91
26823;BME280;14852;51.910;8.878;2024-02-26T01:57:03;98271.81;;;3.49;58.82
26823;BME280;14852;51.910;8.878;2024-02-26T01:59:29;98276.13;;;3.48;58.93
26823;BME280;14852;51.910;8.878;2024-02-26T02:01:57;98279.69;;;3.46;58.94
26823;BME280;14852;51.910;8.878;2024-02-26T02:04:24;98273.72;;;3.45;58.78
26823;BME280;14852;51.910;8.878;2024-02-26T02:06:51;98282.09;;;3.49;58.82
26823;BME280;14852;51.910;8.878;2024-02-26T02:09:18;98268.28;;;3.51;58.78
26823;BME280;14852;51.910;8.878;2024-02-26T02:11:44;98276.81;;;3.52;58.55
26823;BME280;14852;51.910;8.878;2024-02-26T02:14:10;98283.63;;;3.53;58.96
26823;BME280;14852;51.910;8.878;2024-02-26T02:16:36;98277.59;;;3.54;58.60
26823;BME280;14852;51.910;8.878;2024-02-26T02:19:02;98275.72;;;3.57;58.81
26823;BME280;14852;51.910;8.878;2024-02-26T02:21:27;98281.50;;;3.61;58.76
26823;BME280;14852;51.910;8.878;2024-02-26T02:23:53;98284.91;;;3.61;58.89
26823;BME280;14852;51.910;8.878;2024-02-26T02:26:19;98277.97;;;3.63;58.73
26823;BME280;14852;51.910;8.878;2024-02-26T02:28:46;98281.38;;;3.64;58.77
26823;BME280;14852;51.910;8.878;2024-02-26T02:31:13;98286.44;;;3.66;58.73
26823;BME280;14852;51.910;8.878;2024-02-26T02:33:39;98292.28;;;3.69;58.90
26823;BME280;14852;51.910;8.878;2024-02-26T02:36:04;98290.44;;;3.71;58.81
26823;BME280;14852;51.910;8.878;2024-02-26T02:38:34;98294.53;;;3.75;58.53
26823;BME280;14852;51.910;8.878;2024-02-26T02:41:00;98294.41;;;3.78;58.68
26823;BME280;14852;51.910;8.878;2024-02-26T02:43:26;98295.00;;;3.83;58.59
26823;BME280;14852;51.910;8.878;2024-02-26T02:45:51;98293.19;;;3.85;58.51
26823;BME280;14852;51.910;8.878;2024-02-26T02:48:17;98298.94;;;3.90;58.60
26823;BME280;14852;51.910;8.878;2024-02-26T02:50:43;98297.94;;;3.93;58.70
26823;BME280;14852;51.910;8.878;2024-02-26T02:53:09;98306.34;;;3.96;58.81
26823;BME280;14852;51.910;8.878;2024-02-26T02:55:35;98302.59;;;4.04;58.73
26823;BME280;14852;51.910;8.878;2024-02-26T02:58:01;98294.88;;;4.04;58.77
26823;BME280;14852;51.910;8.878;2024-02-26T03:00:27;98299.06;;;4.05;58.83
26823;BME280;14852;51.910;8.878;2024-02-26T03:02:52;98298.16;;;4.06;59.04
26823;BME280;14852;51.910;8.878;2024-02-26T03:05:18;98301.50;;;4.08;59.01
26823;BME280;14852;51.910;8.878;2024-02-26T03:07:44;98300.38;;;4.13;58.72
26823;BME280;14852;51.910;8.878;2024-02-26T03:10:10;98302.63;;;4.19;58.80
26823;BME280;14852;51.910;8.878;2024-02-26T03:12:35;98302.41;;;4.24;58.72
26823;BME280;14852;51.910;8.878;2024-02-26T03:15:02;98296.06;;;4.31;58.88
26823;BME280;14852;51.910;8.878;2024-02-26T03:17:30;98300.78;;;4.38;58.74
26823;BME280;14852;51.910;8.878;2024-02-26T03:19:56;98298.53;;;4.50;58.92
26823;BME280;14852;51.910;8.878;2024-02-26T03:22:22;98295.66;;;4.56;58.90
26823;BME280;14852;51.910;8.878;2024-02-26T03:24:48;98294.50;;;4.61;58.72
26823;BME280;14852;51.910;8.878;2024-02-26T03:27:14;98301.91;;;4.67;58.61
26823;BME280;14852;51.910;8.878;2024-02-26T03:29:40;98294.88;;;4.71;58.66
26823;BME280;14852;51.910;8.878;2024-02-26T03:32:06;98292.94;;;4.74;58.65
26823;BME280;14852;51.910;8.878;2024-02-26T03:34:33;98290.06;;;4.81;58.72
26823;BME280;14852;51.910;8.878;2024-02-26T03:37:02;98297.44;;;4.87;58.66
26823;BME280;14852;51.910;8.878;2024-02-26T03:39:27;98291.09;;;4.94;58.73
26823;BME280;14852;51.910;8.878;2024-02-26T03:41:53;98291.50;;;5.02;58.68
26823;BME280;14852;51.910;8.878;2024-02-26T03:44:19;98290.25;;;5.09;58.54
26823;BME280;14852;51.910;8.878;2024-02-26T03:46:45;98286.53;;;5.15;58.32
26823;BME280;14852;51.910;8.878;2024-02-26T03:49:11;98295.09;;;5.15;58.40
26823;BME280;14852;51.910;8.878;2024-02-26T03:51:37;98294.19;;;5.16;58.49
26823;BME280;14852;51.910;8.878;2024-02-26T03:54:03;98294.19;;;5.16;58.82
26823;BME280;14852;51.910;8.878;2024-02-26T03:56:28;98298.34;;;5.19;58.78
26823;BME280;14852;51.910;8.878;2024-02-26T03:58:54;98297.31;;;5.21;58.83
26823;BME280;14852;51.910;8.878;2024-02-26T04:01:20;98293.66;;;5.25;58.48
26823;BME280;14852;51.910;8.878;2024-02-26T04:03:46;98300.34;;;5.29;58.40
26823;BME280;14852;51.910;8.878;2024-02-26T04:06:12;98298.41;;;5.33;58.41
26823;BME280;14852;51.910;8.878;2024-02-26T04:08:43;98306.81;;;5.36;58.51
26823;BME280;14852;51.910;8.878;2024-02-26T04:11:09;98303.16;;;5.40;58.68
26823;BME280;14852;51.910;8.878;2024-02-26T04:13:35;98307.19;;;5.44;58.50
26823;BME280;14852;51.910;8.878;2024-02-26T04:16:06;98306.13;;;5.49;58.49
26823;BME280;14852;51.910;8.878;2024-02-26T04:18:32;98303.56;;;5.49;58.41
26823;BME280;14852;51.910;8.878;2024-02-26T04:20:58;98299.16;;;5.51;58.66
26823;BME280;14852;51.910;8.878;2024-02-26T04:23:24;98298.16;;;5.53;58.82
26823;BME280;14852;51.910;8.878;2024-02-26T04:25:50;98301.38;;;5.57;58.78
26823;BME280;14852;51.910;8.878;2024-02-26T04:28:19;98301.22;;;5.60;58.55
26823;BME280;14852;51.910;8.878;2024-02-26T04:30:47;98303.63;;;5.63;58.91
26823;BME280;14852;51.910;8.878;2024-02-26T04:33:13;98310.19;;;5.68;58.67
26823;BME280;14852;51.910;8.878;2024-02-26T04:35:39;98313.44;;;5.72;58.73
26823;BME280;14852;51.910;8.878;2024-02-26T04:38:05;98313.25;;;5.75;59.03
26823;BME280;14852;51.910;8.878;2024-02-26T04:40:31;98307.09;;;5.77;59.03
26823;BME280;14852;51.910;8.878;2024-02-26T04:42:56;98316.97;;;5.85;58.96
26823;BME280;14852;51.910;8.878;2024-02-26T04:45:23;98314.91;;;5.92;58.76
26823;BME280;14852;51.910;8.878;2024-02-26T04:47:48;98329.97;;;5.99;59.01
26823;BME280;14852;51.910;8.878;2024-02-26T04:50:14;98331.28;;;6.06;58.69
26823;BME280;14852;51.910;8.878;2024-02-26T04:52:40;98329.06;;;6.14;58.63
26823;BME280;14852;51.910;8.878;2024-02-26T04:55:07;98336.47;;;6.21;58.42
26823;BME280;14852;51.910;8.878;2024-02-26T04:57:32;98327.53;;;6.26;58.54
26823;BME280;14852;51.910;8.878;2024-02-26T04:59:58;98335.03;;;6.31;58.43
26823;BME280;14852;51.910;8.878;2024-02-26T05:02:24;98332.38;;;6.32;58.48
26823;BME280;14852;51.910;8.878;2024-02-26T05:04:50;98338.34;;;6.33;58.31
26823;BME280;14852;51.910;8.878;2024-02-26T05:07:16;98342.69;;;6.32;58.49
26823;BME280;14852;51.910;8.878;2024-02-26T05:09:43;98333.28;;;6.31;58.68
26823;BME280;14852;51.910;8.878;2024-02-26T05:12:09;98340.94;;;6.33;58.57
26823;BME280;14852;51.910;8.878;2024-02-26T05:14:35;98337.44;;;6.34;58.62
26823;BME280;14852;51.910;8.878;2024-02-26T05:17:01;98338.28;;;6.34;58.56
26823;BME280;14852;51.910;8.878;2024-02-26T05:19:27;98339.72;;;6.38;58.62
26823;BME280;14852;51.910;8.878;2024-02-26T05:21:52;98342.06;;;6.43;58.50
26823;BME280;14852;51.910;8.878;2024-02-26T05:24:18;98334.31;;;6.43;58.78
26823;BME280;14852;51.910;8.878;2024-02-26T05:26:48;98341.06;;;6.45;58.49
26823;BME280;14852;51.910;8.878;2024-02-26T05:29:14;98343.63;;;6.45;58.60
26823;BME280;14852;51.910;8.878;2024-02-26T05:31:42;98337.44;;;6.48;58.88
26823;BME280;14852;51.910;8.878;2024-02-26T05:34:08;98345.00;;;6.51;58.89
26823;BME280;14852;51.910;8.878;2024-02-26T05:36:34;98339.69;;;6.54;58.83
26823;BME280;14852;51.910;8.878;2024-02-26T05:39:01;98349.00;;;6.57;58.69
26823;BME280;14852;51.910;8.878;2024-02-26T05:41:27;98347.25;;;6.57;58.74
26823;BME280;14852;51.910;8.878;2024-02-26T05:43:53;98350.47;;;6.61;58.90
26823;BME280;14852;51.910;8.878;2024-02-26T05:46:20;98350.28;;;6.64;58.79
26823;BME280;14852;51.910;8.878;2024-02-26T05:48:53;98350.03;;;6.68;58.42
26823;BME280;14852;51.910;8.878;2024-02-26T05:51:19;98340.53;;;6.69;58.80
26823;BME280;14852;51.910;8.878;2024-02-26T05:53:44;98346.50;;;6.69;58.55
26823;BME280;14852;51.910;8.878;2024-02-26T05:56:12;98345.59;;;6.70;58.67
26823;BME280;14852;51.910;8.878;2024-02-26T05:58:38;98357.03;;;6.66;58.85
26823;BME280;14852;51.910;8.878;2024-02-26T06:01:04;98354.72;;;6.62;59.06
26823;BME280;14852;51.910;8.878;2024-02-26T06:03:29;98360.16;;;6.57;58.87
26823;BME280;14852;51.910;8.878;2024-02-26T06:05:55;98373.22;;;6.54;59.14
26823;BME280;14852;51.910;8.878;2024-02-26T06:08:21;98358.66;;;6.53;59.27
26823;BME280;14852;51.910;8.878;2024-02-26T06:10:47;98373.22;;;6.54;59.43
26823;BME280;14852;51.910;8.878;2024-02-26T06:13:13;98380.13;;;6.53;59.18
26823;BME280;14852;51.910;8.878;2024-02-26T06:15:39;98379.13;;;6.56;59.27
26823;BME280;14852;51.910;8.878;2024-02-26T06:18:05;98382.25;;;6.61;59.53
26823;BME280;14852;51.910;8.878;2024-02-26T06:20:30;98379.50;;;6.64;59.14
26823;BME280;14852;51.910;8.878;2024-02-26T06:22:56;98386.34;;;6.65;59.10
26823;BME280;14852;51.910;8.878;2024-02-26T06:25:22;98384.41;;;6.69;59.16
26823;BME280;14852;51.910;8.878;2024-02-26T06:27:48;98380.88;;;6.70;59.24
26823;BME280;14852;51.910;8.878;2024-02-26T06:30:13;98378.97;;;6.73;59.19
26823;BME280;14852;51.910;8.878;2024-02-26T06:32:39;98393.38;;;6.77;59.06
26823;BME280;14852;51.910;8.878;2024-02-26T06:35:06;98398.44;;;6.79;59.01
26823;BME280;14852;51.910;8.878;2024-02-26T06:37:33;98389.88;;;6.78;59.07
26823;BME280;14852;51.910;8.878;2024-02-26T06:40:00;98388.94;;;6.79;59.25
26823;BME280;14852;51.910;8.878;2024-02-26T06:42:26;98390.41;;;6.83;59.23
26823;BME280;14852;51.910;8.878;2024-02-26T06:44:52;98385.91;;;6.87;59.17
26823;BME280;14852;51.910;8.878;2024-02-26T06:47:17;98393.28;;;6.93;59.34
26823;BME280;14852;51.910;8.878;2024-02-26T06:49:45;98391.19;;;7.00;59.05
26823;BME280;14852;51.910;8.878;2024-02-26T06:52:10;98389.13;;;7.05;58.94
26823;BME280;14852;51.910;8.878;2024-02-26T06:54:36;98389.88;;;7.07;59.02
26823;BME280;14852;51.910;8.878;2024-02-26T06:57:02;98396.44;;;7.12;58.96
26823;BME280;14852;51.910;8.878;2024-02-26T06:59:28;98393.56;;;7.17;58.83
26823;BME280;14852;51.910;8.878;2024-02-26T07:01:54;98399.38;;;7.20;58.88
26823;BME280;14852;51.910;8.878;2024-02-26T07:04:20;98395.72;;;7.24;58.46
26823;BME280;14852;51.910;8.878;2024-02-26T07:06:47;98391.16;;;7.28;58.44
26823;BME280;14852;51.910;8.878;2024-02-26T07:09:13;98394.50;;;7.30;58.72
26823;BME280;14852;51.910;8.878;2024-02-26T07:11:39;98388.31;;;7.33;58.64
26823;BME280;14852;51.910;8.878;2024-02-26T07:14:12;98388.88;;;7.38;58.64
26823;BME280;14852;51.910;8.878;2024-02-26T07:16:37;98390.41;;;7.40;58.56
26823;BME280;14852;51.910;8.878;2024-02-26T07:19:03;98383.41;;;7.42;58.45
26823;BME280;14852;51.910;8.878;2024-02-26T07:21:29;98384.91;;;7.46;58.27
26823;BME280;14852;51.910;8.878;2024-02-26T07:23:55;98384.81;;;7.48;58.62
26823;BME280;14852;51.910;8.878;2024-02-26T07:26:21;98389.75;;;7.51;58.26
26823;BME280;14852;51.910;8.878;2024-02-26T07:28:46;98401.66;;;7.53;58.22
26823;BME280;14852;51.910;8.878;2024-02-26T07:31:13;98399.00;;;7.55;58.32
26823;BME280;14852;51.910;8.878;2024-02-26T07:33:39;98397.91;;;7.59;58.52
26823;BME280;14852;51.910;8.878;2024-02-26T07:36:05;98396.03;;;7.61;58.03
26823;BME280;14852;51.910;8.878;2024-02-26T07:38:31;98395.00;;;7.63;57.95
26823;BME280;14852;51.910;8.878;2024-02-26T07:40:56;98397.41;;;7.67;57.93
26823;BME280;14852;51.910;8.878;2024-02-26T07:43:23;98396.41;;;7.69;57.93
26823;BME280;14852;51.910;8.878;2024-02-26T07:45:48;98403.13;;;7.72;57.81
26823;BME280;14852;51.910;8.878;2024-02-26T07:48:14;98402.81;;;7.76;57.78
26823;BME280;14852;51.910;8.878;2024-02-26T07:50:40;98400.91;;;7.80;57.80
26823;BME280;14852;51.910;8.878;2024-02-26T07:53:08;98398.94;;;7.83;57.99
26823;BME280;14852;51.910;8.878;2024-02-26T07:55:34;98405.38;;;7.90;57.63
26823;BME280;14852;51.910;8.878;2024-02-26T07:58:00;98405.09;;;7.95;57.41
26823;BME280;14852;51.910;8.878;2024-02-26T08:00:26;98402.22;;;7.99;57.80
26823;BME280;14852;51.910;8.878;2024-02-26T08:02:51;98407.84;;;8.06;57.61
26823;BME280;14852;51.910;8.878;2024-02-26T08:05:17;98406.59;;;8.12;57.46
26823;BME280;14852;51.910;8.878;2024-02-26T08:07:43;98408.00;;;8.17;57.63
26823;BME280;14852;51.910;8.878;2024-02-26T08:10:09;98414.50;;;8.23;57.45
26823;BME280;14852;51.910;8.878;2024-02-26T08:12:35;98408.22;;;8.27;57.60
26823;BME280;14852;51.910;8.878;2024-02-26T08:15:01;98411.56;;;8.29;57.69
26823;BME280;14852;51.910;8.878;2024-02-26T08:17:27;98418.84;;;8.37;57.58
26823;BME280;14852;51.910;8.878;2024-02-26T08:19:53;98411.50;;;8.43;57.40
26823;BME280;14852;51.910;8.878;2024-02-26T08:22:19;98419.06;;;8.46;57.58
26823;BME280;14852;51.910;8.878;2024-02-26T08:24:45;98423.13;;;8.50;57.35
26823;BME280;14852;51.910;8.878;2024-02-26T08:27:10;98420.97;;;8.57;57.17
26823;BME280;14852;51.910;8.878;2024-02-26T08:29:36;98424.19;;;8.60;57.20
26823;BME280;14852;51.910;8.878;2024-02-26T08:32:02;98441.06;;;8.66;57.15
26823;BME280;14852;51.910;8.878;2024-02-26T08:34:28;98437.25;;;8.71;57.08
26823;BME280;14852;51.910;8.878;2024-02-26T08:36:53;98437.81;;;8.77;56.70
26823;BME280;14852;51.910;8.878;2024-02-26T08:39:19;98441.72;;;8.82;56.93
26823;BME280;14852;51.910;8.878;2024-02-26T08:41:46;98442.25;;;8.87;56.51
26823;BME280;14852;51.910;8.878;2024-02-26T08:44:11;98443.41;;;8.96;56.42
26823;BME280;14852;51.910;8.878;2024-02-26T08:46:37;98445.56;;;9.02;56.72
26823;BME280;14852;51.910;8.878;2024-02-26T08:49:03;98452.75;;;9.11;56.69
26823;BME280;14852;51.910;8.878;2024-02-26T08:51:29;98454.00;;;9.18;56.47
26823;BME280;14852;51.910;8.878;2024-02-26T08:53:56;98460.22;;;9.28;56.62
26823;BME280;14852;51.910;8.878;2024-02-26T08:56:22;98461.69;;;9.32;56.34
26823;BME280;14852;51.910;8.878;2024-02-26T08:58:48;98455.22;;;9.38;56.18
26823;BME280;14852;51.910;8.878;2024-02-26T09:01:19;98461.66;;;9.45;56.26
26823;BME280;14852;51.910;8.878;2024-02-26T09:03:45;98463.00;;;9.51;55.97
26823;BME280;14852;51.910;8.878;2024-02-26T09:06:11;98462.59;;;9.57;56.39
26823;BME280;14852;51.910;8.878;2024-02-26T09:08:40;98467.25;;;9.64;55.72
26823;BME280;14852;51.910;8.878;2024-02-26T09:11:05;98472.22;;;9.67;55.68
26823;BME280;14852;51.910;8.878;2024-02-26T09:13:32;98470.13;;;9.72;55.79
26823;BME280;14852;51.910;8.878;2024-02-26T09:15:57;98475.94;;;9.76;55.61
26823;BME280;14852;51.910;8.878;2024-02-26T09:18:24;98480.00;;;9.80;55.37
26823;BME280;14852;51.910;8.878;2024-02-26T09:20:50;98473.44;;;9.87;55.51
26823;BME280;14852;51.910;8.878;2024-02-26T09:23:16;98480.19;;;9.90;55.12
26823;BME280;14852;51.910;8.878;2024-02-26T09:25:42;98483.16;;;9.96;54.95
26823;BME280;14852;51.910;8.878;2024-02-26T09:28:08;98478.50;;;10.01;55.02
26823;BME280;14852;51.910;8.878;2024-02-26T09:30:33;98473.47;;;10.11;55.09
26823;BME280;14852;51.910;8.878;2024-02-26T09:32:59;98477.09;;;10.21;54.63
26823;BME280;14852;51.910;8.878;2024-02-26T09:35:25;98473.63;;;10.33;54.77
26823;BME280;14852;51.910;8.878;2024-02-26T09:37:52;98481.38;;;10.46;54.56
26823;BME280;14852;51.910;8.878;2024-02-26T09:40:19;98482.78;;;10.50;53.95
26823;BME280;14852;51.910;8.878;2024-02-26T09:42:45;98481.91;;;10.62;53.88
26823;BME280;14852;51.910;8.878;2024-02-26T09:45:19;98490.56;;;10.74;54.03
26823;BME280;14852;51.910;8.878;2024-02-26T09:47:45;98483.31;;;10.90;53.64
26823;BME280;14852;51.910;8.878;2024-02-26T09:50:14;98476.53;;;11.11;53.62
26823;BME280;14852;51.910;8.878;2024-02-26T09:52:43;98483.28;;;11.25;53.26
26823;BME280;14852;51.910;8.878;2024-02-26T09:55:09;98486.50;;;11.40;53.43
26823;BME280;14852;51.910;8.878;2024-02-26T09:57:37;98493.03;;;11.56;52.85
26823;BME280;14852;51.910;8.878;2024-02-26T10:00:05;98495.88;;;11.65;52.82
26823;BME280;14852;51.910;8.878;2024-02-26T10:02:36;98500.00;;;11.67;52.60
26823;BME280;14852;51.910;8.878;2024-02-26T10:05:05;98503.91;;;11.61;53.07
26823;BME280;14852;51.910;8.878;2024-02-26T10:07:33;98513.38;;;11.63;52.83
26823;BME280;14852;51.910;8.878;2024-02-26T10:09:59;98514.09;;;11.65;52.84
26823;BME280;14852;51.910;8.878;2024-02-26T10:12:26;98512.56;;;11.62;53.03
26823;BME280;14852;51.910;8.878;2024-02-26T10:14:53;98516.09;;;11.61;52.80
26823;BME280;14852;51.910;8.878;2024-02-26T10:17:20;98519.41;;;11.63;52.35
26823;BME280;14852;51.910;8.878;2024-02-26T10:19:46;98512.06;;;11.68;52.44
26823;BME280;14852;51.910;8.878;2024-02-26T10:22:11;98509.75;;;11.76;52.63
26823;BME280;14852;51.910;8.878;2024-02-26T10:24:37;98518.41;;;11.88;52.60
26823;BME280;14852;51.910;8.878;2024-02-26T10:27:03;98520.28;;;11.97;52.30
26823;BME280;14852;51.910;8.878;2024-02-26T10:29:30;98524.41;;;12.11;52.59
26823;BME280;14852;51.910;8.878;2024-02-26T10:31:56;98524.03;;;12.26;52.32
26823;BME280;14852;51.910;8.878;2024-02-26T10:34:22;98519.03;;;12.46;51.94
26823;BME280;14852;51.910;8.878;2024-02-26T10:36:49;98520.13;;;12.75;51.64
26823;BME280;14852;51.910;8.878;2024-02-26T10:39:15;98526.19;;;12.96;51.33
26823;BME280;14852;51.910;8.878;2024-02-26T10:41:43;98523.66;;;13.06;50.87
26823;BME280;14852;51.910;8.878;2024-02-26T10:44:10;98534.13;;;12.95;50.19
26823;BME280;14852;51.910;8.878;2024-02-26T10:46:37;98541.69;;;12.77;50.09
26823;BME280;14852;51.910;8.878;2024-02-26T10:49:04;98538.75;;;12.59;50.19
26823;BME280;14852;51.910;8.878;2024-02-26T10:51:34;98550.03;;;12.49;50.75
26823;BME280;14852;51.910;8.878;2024-02-26T10:54:04;98556.69;;;12.42;50.93
26823;BME280;14852;51.910;8.878;2024-02-26T10:56:34;98555.75;;;12.31;51.05
26823;BME280;14852;51.910;8.878;2024-02-26T10:59:01;98558.00;;;12.25;51.47
26823;BME280;14852;51.910;8.878;2024-02-26T11:01:27;98556.72;;;12.19;51.67
26823;BME280;14852;51.910;8.878;2024-02-26T11:03:58;98563.47;;;12.22;51.65
26823;BME280;14852;51.910;8.878;2024-02-26T11:06:26;98562.03;;;12.29;51.58
26823;BME280;14852;51.910;8.878;2024-02-26T11:08:53;98558.47;;;12.30;51.28
26823;BME280;14852;51.910;8.878;2024-02-26T11:11:20;98560.69;;;12.34;51.05
26823;BME280;14852;51.910;8.878;2024-02-26T11:13:48;98564.97;;;12.36;51.17
26823;BME280;14852;51.910;8.878;2024-02-26T11:16:18;98566.88;;;12.33;51.49
26823;BME280;14852;51.910;8.878;2024-02-26T11:18:47;98570.19;;;12.36;51.80
26823;BME280;14852;51.910;8.878;2024-02-26T11:21:16;98568.06;;;12.29;51.20
26823;BME280;14852;51.910;8.878;2024-02-26T11:23:47;98572.13;;;12.22;51.46
26823;BME280;14852;51.910;8.878;2024-02-26T11:26:15;98569.63;;;12.21;51.42
26823;BME280;14852;51.910;8.878;2024-02-26T11:28:44;98575.06;;;12.18;51.13
26823;BME280;14852;51.910;8.878;2024-02-26T11:31:10;98571.97;;;12.13;51.58
26823;BME280;14852;51.910;8.878;2024-02-26T11:33:38;98572.81;;;12.13;51.60
26823;BME280;14852;51.910;8.878;2024-02-26T11:36:13;98573.88;;;12.11;51.60
26823;BME280;14852;51.910;8.878;2024-02-26T11:38:39;98576.00;;;12.06;51.91
26823;BME280;14852;51.910;8.878;2024-02-26T11:41:06;98580.59;;;12.02;51.86
26823;BME280;14852;51.910;8.878;2024-02-26T11:43:53;98579.09;;;12.00;51.68
26823;BME280;14852;51.910;8.878;2024-02-26T11:49:04;98575.66;;;12.10;51.94
26823;BME280;14852;51.910;8.878;2024-02-26T11:51:56;98573.50;;;12.15;51.97
26823;BME280;14852;51.910;8.878;2024-02-26T11:54:48;98573.06;;;12.21;52.29
26823;BME280;14852;51.910;8.878;2024-02-26T11:57:37;98583.09;;;12.15;51.83
26823;BME280;14852;51.910;8.878;2024-02-26T12:02:43;98577.28;;;12.00;52.35
26823;BME280;14852;51.910;8.878;2024-02-26T12:05:21;98573.63;;;12.03;52.36
26823;BME280;14852;51.910;8.878;2024-02-26T12:08:04;98587.25;;;12.06;52.05
26823;BME280;14852;51.910;8.878;2024-02-26T12:10:37;98581.31;;;12.04;51.76
26823;BME280;14852;51.910;8.878;2024-02-26T12:13:16;98588.31;;;12.04;52.04
26823;BME280;14852;51.910;8.878;2024-02-26T12:18:19;98582.53;;;12.11;52.10
26823;BME280;14852;51.910;8.878;2024-02-26T12:20:46;98585.69;;;12.15;51.90
26823;BME280;14852;51.910;8.878;2024-02-26T12:23:16;98596.22;;;12.24;51.75
26823;BME280;14852;51.910;8.878;2024-02-26T12:25:45;98596.22;;;12.24;51.65
26823;BME280;14852;51.910;8.878;2024-02-26T12:28:14;98602.03;;;12.28;51.29
26823;BME280;14852;51.910;8.878;2024-02-26T12:30:40;98593.63;;;12.24;51.37
26823;BME280;14852;51.910;8.878;2024-02-26T12:33:07;98596.00;;;12.27;51.02
26823;BME280;14852;51.910;8.878;2024-02-26T12:35:35;98596.59;;;12.31;51.30
26823;BME280;14852;51.910;8.878;2024-02-26T12:38:01;98594.13;;;12.29;50.82
26823;BME280;14852;51.910;8.878;2024-02-26T12:40:29;98596.72;;;12.29;50.88
26823;BME280;14852;51.910;8.878;2024-02-26T12:42:55;98591.41;;;12.31;50.71
26823;BME280;14852;51.910;8.878;2024-02-26T12:45:21;98605.34;;;12.30;50.56
26823;BME280;14852;51.910;8.878;2024-02-26T12:47:47;98608.44;;;12.24;50.83
26823;BME280;14852;51.910;8.878;2024-02-26T12:50:15;98597.88;;;12.25;51.09
26823;BME280;14852;51.910;8.878;2024-02-26T12:52:44;98596.72;;;12.29;50.71
26823;BME280;14852;51.910;8.878;2024-02-26T12:55:14;98593.50;;;12.26;50.64
26823;BME280;14852;51.910;8.878;2024-02-26T12:57:41;98598.72;;;12.26;50.44
26823;BME280;14852;51.910;8.878;2024-02-26T13:00:13;98602.88;;;12.28;50.48
26823;BME280;14852;51.910;8.878;2024-02-26T13:02:41;98611.63;;;12.27;50.87
26823;BME280;14852;51.910;8.878;2024-02-26T13:05:13;98612.81;;;12.23;50.39
26823;BME280;14852;51.910;8.878;2024-02-26T13:07:43;98618.84;;;12.24;50.69
26823;BME280;14852;51.910;8.878;2024-02-26T13:10:10;98621.69;;;12.32;50.68
26823;BME280;14852;51.910;8.878;2024-02-26T13:12:47;98628.91;;;12.40;50.44